Time;durP1;ratioP1;P1;durP2;ratioP2;P2;SDS_P1;SDS_P2;PMS_P1;PMS_P2;Temp;Humidity;BMP_temperature;BMP_pressure;BME280_temperature;BME280_humidity;BME280_pressure;Samples;Min_cycle;Max_cycle;Signal;HPM_P1;HPM_P2
2022/10/28 00:00:32;;;;;;;5.5;3;;;;;;;;;;;;;
2022/10/28 00:02:58;;;;;;;7;2.8;;;;;;;;;;;;;
2022/10/28 00:05:23;;;;;;;4.4;2.8;;;;;;;;;;;;;
2022/10/28 00:07:48;;;;;;;5.6;3.1;;;;;;;;;;;;;
2022/10/28 00:10:14;;;;;;;5;2.9;;;;;;;;;;;;;
2022/10/28 00:12:41;;;;;;;4.6;2.6;;;;;;;;;;;;;
2022/10/28 00:15:06;;;;;;;6.5;2.7;;;;;;;;;;;;;
2022/10/28 00:17:31;;;;;;;5;2.9;;;;;;;;;;;;;
2022/10/28 00:19:56;;;;;;;7;3.7;;;;;;;;;;;;;
2022/10/28 00:22:22;;;;;;;5.3;3.3;;;;;;;;;;;;;
2022/10/28 00:24:47;;;;;;;6.8;3;;;;;;;;;;;;;
2022/10/28 00:27:12;;;;;;;4.2;2.3;;;;;;;;;;;;;
2022/10/28 00:29:37;;;;;;;5.3;2.1;;;;;;;;;;;;;
2022/10/28 00:32:03;;;;;;;4.4;2.1;;;;;;;;;;;;;
2022/10/28 00:34:28;;;;;;;3.8;2.3;;;;;;;;;;;;;
2022/10/28 00:36:53;;;;;;;4;2.6;;;;;;;;;;;;;
2022/10/28 00:39:21;;;;;;;2.5;2.3;;;;;;;;;;;;;
2022/10/28 00:41:46;;;;;;;5.2;2.2;;;;;;;;;;;;;
2022/10/28 00:44:12;;;;;;;4.1;2.2;;;;;;;;;;;;;
2022/10/28 00:46:37;;;;;;;4.2;2.3;;;;;;;;;;;;;
2022/10/28 00:49:02;;;;;;;4.7;2.4;;;;;;;;;;;;;
2022/10/28 00:51:27;;;;;;;3.3;2;;;;;;;;;;;;;
2022/10/28 00:53:54;;;;;;;7.1;2.4;;;;;;;;;;;;;
2022/10/28 00:56:19;;;;;;;5.7;2.5;;;;;;;;;;;;;
2022/10/28 00:58:44;;;;;;;5.1;2.1;;;;;;;;;;;;;
2022/10/28 01:01:09;;;;;;;4.9;2;;;;;;;;;;;;;
2022/10/28 01:03:37;;;;;;;3.5;2.1;;;;;;;;;;;;;
2022/10/28 01:06:20;;;;;;;7;2.3;;;;;;;;;;;;;
2022/10/28 01:08:27;;;;;;;3.2;2;;;;;;;;;;;;;
2022/10/28 01:10:52;;;;;;;4.1;2.1;;;;;;;;;;;;;
2022/10/28 01:13:17;;;;;;;4.2;2.1;;;;;;;;;;;;;
2022/10/28 01:15:42;;;;;;;5.6;2.3;;;;;;;;;;;;;
2022/10/28 01:18:07;;;;;;;4.1;2.4;;;;;;;;;;;;;
2022/10/28 01:20:34;;;;;;;5.5;2.6;;;;;;;;;;;;;
2022/10/28 01:23:10;;;;;;;5.5;2.4;;;;;;;;;;;;;
2022/10/28 01:25:35;;;;;;;4.6;2.1;;;;;;;;;;;;;
2022/10/28 01:28:00;;;;;;;2.6;1.8;;;;;;;;;;;;;
2022/10/28 01:30:26;;;;;;;4.9;2.3;;;;;;;;;;;;;
2022/10/28 01:32:51;;;;;;;3.1;1.9;;;;;;;;;;;;;
2022/10/28 01:35:16;;;;;;;5.6;2;;;;;;;;;;;;;
2022/10/28 01:37:41;;;;;;;4.9;2.3;;;;;;;;;;;;;
2022/10/28 01:40:06;;;;;;;3.6;2.3;;;;;;;;;;;;;
2022/10/28 01:42:31;;;;;;;4;2.2;;;;;;;;;;;;;
2022/10/28 01:44:56;;;;;;;3.1;1.8;;;;;;;;;;;;;
2022/10/28 01:47:21;;;;;;;4.1;2;;;;;;;;;;;;;
2022/10/28 01:49:46;;;;;;;4.8;1.9;;;;;;;;;;;;;
2022/10/28 01:52:12;;;;;;;4.2;2;;;;;;;;;;;;;
2022/10/28 01:54:37;;;;;;;3;1.6;;;;;;;;;;;;;
2022/10/28 01:57:02;;;;;;;3.4;1.6;;;;;;;;;;;;;
2022/10/28 01:59:27;;;;;;;2.9;1.8;;;;;;;;;;;;;
2022/10/28 02:01:52;;;;;;;3.2;1.7;;;;;;;;;;;;;
2022/10/28 02:04:20;;;;;;;2.4;1.5;;;;;;;;;;;;;
2022/10/28 02:06:45;;;;;;;5.3;1.9;;;;;;;;;;;;;
2022/10/28 02:09:10;;;;;;;2.6;1.7;;;;;;;;;;;;;
2022/10/28 02:11:36;;;;;;;4.6;1.9;;;;;;;;;;;;;
2022/10/28 02:14:01;;;;;;;3.1;1.9;;;;;;;;;;;;;
2022/10/28 02:16:26;;;;;;;4.2;1.7;;;;;;;;;;;;;
2022/10/28 02:18:51;;;;;;;4.1;2;;;;;;;;;;;;;
2022/10/28 02:21:16;;;;;;;3.7;2;;;;;;;;;;;;;
2022/10/28 02:23:42;;;;;;;3.4;1.6;;;;;;;;;;;;;
2022/10/28 02:26:07;;;;;;;3.7;1.9;;;;;;;;;;;;;
2022/10/28 02:28:32;;;;;;;5;1.9;;;;;;;;;;;;;
2022/10/28 02:30:59;;;;;;;3.8;2.1;;;;;;;;;;;;;
2022/10/28 02:33:23;;;;;;;4.7;1.8;;;;;;;;;;;;;
2022/10/28 02:35:48;;;;;;;3.2;1.8;;;;;;;;;;;;;
2022/10/28 02:38:16;;;;;;;3.7;1.6;;;;;;;;;;;;;
2022/10/28 02:40:41;;;;;;;4.7;1.5;;;;;;;;;;;;;
2022/10/28 02:43:06;;;;;;;2.9;1.7;;;;;;;;;;;;;
2022/10/28 02:45:31;;;;;;;3.6;1.7;;;;;;;;;;;;;
2022/10/28 02:47:58;;;;;;;3.1;1.7;;;;;;;;;;;;;
2022/10/28 02:50:23;;;;;;;2.5;1.7;;;;;;;;;;;;;
2022/10/28 02:52:48;;;;;;;4.5;2;;;;;;;;;;;;;
2022/10/28 02:55:13;;;;;;;2.2;1.5;;;;;;;;;;;;;
2022/10/28 02:57:41;;;;;;;5.9;1.7;;;;;;;;;;;;;
2022/10/28 03:00:06;;;;;;;4.4;2.4;;;;;;;;;;;;;
2022/10/28 03:02:35;;;;;;;5.4;2.5;;;;;;;;;;;;;
2022/10/28 03:05:03;;;;;;;4.7;2.5;;;;;;;;;;;;;
2022/10/28 03:07:28;;;;;;;7.3;2.2;;;;;;;;;;;;;
2022/10/28 03:09:54;;;;;;;3.9;2;;;;;;;;;;;;;
2022/10/28 03:12:19;;;;;;;4.5;2.2;;;;;;;;;;;;;
2022/10/28 03:14:44;;;;;;;8.4;3.1;;;;;;;;;;;;;
2022/10/28 03:17:10;;;;;;;6.2;2.7;;;;;;;;;;;;;
2022/10/28 03:19:35;;;;;;;6.2;2.2;;;;;;;;;;;;;
2022/10/28 03:22:00;;;;;;;4.8;2.6;;;;;;;;;;;;;
2022/10/28 03:24:27;;;;;;;5.4;2.7;;;;;;;;;;;;;
2022/10/28 03:26:52;;;;;;;10.2;3;;;;;;;;;;;;;
2022/10/28 03:29:17;;;;;;;10.8;3.8;;;;;;;;;;;;;
2022/10/28 03:31:42;;;;;;;8.2;3.4;;;;;;;;;;;;;
2022/10/28 03:34:09;;;;;;;5.3;2.4;;;;;;;;;;;;;
2022/10/28 03:36:34;;;;;;;3.7;1.9;;;;;;;;;;;;;
2022/10/28 03:39:00;;;;;;;4.4;2.2;;;;;;;;;;;;;
2022/10/28 03:41:25;;;;;;;4.8;1.8;;;;;;;;;;;;;
2022/10/28 03:43:51;;;;;;;5.6;2.1;;;;;;;;;;;;;
2022/10/28 03:46:16;;;;;;;3;1.5;;;;;;;;;;;;;
2022/10/28 03:48:41;;;;;;;3;1.8;;;;;;;;;;;;;
2022/10/28 03:51:06;;;;;;;2.2;1.5;;;;;;;;;;;;;
2022/10/28 03:53:31;;;;;;;5.2;1.5;;;;;;;;;;;;;
2022/10/28 03:55:57;;;;;;;2.9;1.9;;;;;;;;;;;;;
2022/10/28 03:58:22;;;;;;;3.7;1.9;;;;;;;;;;;;;
2022/10/28 04:02:35;;;;;;;5.2;2;;;;;;;9.64;88.41699;947.2838;;;;
2022/10/28 04:05:00;;;;;;;4.4;2;;;;;;;9.65;88.06543;947.4255;;;;
2022/10/28 04:07:25;;;;;;;3.9;2.3;;;;;;;9.65;87.79199;947.4097;;;;
2022/10/28 04:09:53;;;;;;;3.1;2.2;;;;;;;9.6;88.04492;947.3325;;;;
2022/10/28 04:12:19;;;;;;;3.5;1.7;;;;;;;9.66;87.93066;947.4408;;;;
2022/10/28 04:14:48;;;;;;;4;2.4;;;;;;;9.72;87.41992;947.39;;;;
2022/10/28 04:17:13;;;;;;;5.2;2;;;;;;;9.69;87.66504;947.4433;;;;
2022/10/28 04:19:43;;;;;;;2.8;2;;;;;;;9.57;88.09473;947.493;;;;
2022/10/28 04:22:08;;;;;;;5.7;2.9;;;;;;;9.5;88.50098;947.494;;;;
2022/10/28 04:24:38;;;;;;;4.4;2.7;;;;;;;9.41;89.38477;947.4511;;;;
2022/10/28 04:27:03;;;;;;;4.1;2.2;;;;;;;9.53;88.91699;947.4344;;;;
2022/10/28 04:29:32;;;;;;;4;2.2;;;;;;;9.58;88.57715;947.4274;;;;
2022/10/28 04:31:58;;;;;;;3.8;2.1;;;;;;;9.6;88.45313;947.4762;;;;
2022/10/28 04:34:22;;;;;;;4.4;2.6;;;;;;;9.52;88.43848;947.4447;;;;
2022/10/28 04:36:52;;;;;;;6.6;3;;;;;;;9.55;88.25977;947.3539;;;;
2022/10/28 04:39:22;;;;;;;5.2;2.4;;;;;;;9.53;88.1084;947.4265;;;;
2022/10/28 04:41:56;;;;;;;6.1;2.7;;;;;;;9.41;88.61914;947.4586;;;;
2022/10/28 04:44:27;;;;;;;4.4;2.4;;;;;;;9.32;89.14941;947.48;;;;
2022/10/28 04:46:55;;;;;;;7.3;2.8;;;;;;;9.36;89.08887;947.4883;;;;
2022/10/28 04:49:20;;;;;;;5.7;2.7;;;;;;;9.41;88.94043;947.3851;;;;
2022/10/28 04:51:48;;;;;;;5.4;2.4;;;;;;;9.44;88.87793;947.4526;;;;
2022/10/28 04:54:13;;;;;;;4.7;2.4;;;;;;;9.57;88.35645;947.3958;;;;
2022/10/28 04:56:38;;;;;;;8.4;2.8;;;;;;;9.63;87.94824;947.382;;;;
2022/10/28 04:59:03;;;;;;;5.7;2.8;;;;;;;9.7;87.29004;947.4333;;;;
2022/10/28 05:01:28;;;;;;;11.8;5.7;;;;;;;9.52;88.17676;947.3318;;;;
2022/10/28 05:03:53;;;;;;;9.2;4;;;;;;;9.66;87.94238;947.3819;;;;
2022/10/28 05:06:18;;;;;;;11.2;4.5;;;;;;;9.56;88.6875;947.3727;;;;
2022/10/28 05:08:44;;;;;;;11.8;4.9;;;;;;;9.59;88.68164;947.4006;;;;
2022/10/28 05:11:12;;;;;;;6.2;3.2;;;;;;;9.64;87.89258;947.3894;;;;
2022/10/28 05:13:37;;;;;;;15.1;5.5;;;;;;;9.79;86.89844;947.3561;;;;
2022/10/28 05:16:07;;;;;;;14.4;4.8;;;;;;;9.77;86.74512;947.3396;;;;
2022/10/28 05:18:35;;;;;;;9.6;4.1;;;;;;;9.79;86.81641;947.3066;;;;
2022/10/28 05:21:00;;;;;;;7.7;3.6;;;;;;;9.82;86.5166;947.2522;;;;
2022/10/28 05:23:26;;;;;;;5.7;2.3;;;;;;;9.71;87.31348;947.3259;;;;
2022/10/28 05:25:51;;;;;;;5.7;2.9;;;;;;;9.66;87.2832;947.3638;;;;
2022/10/28 05:28:20;;;;;;;6.6;3.3;;;;;;;9.59;87.74707;947.3328;;;;
2022/10/28 05:30:45;;;;;;;6.7;3.8;;;;;;;9.57;87.78906;947.3714;;;;
2022/10/28 05:33:12;;;;;;;9.8;3.8;;;;;;;9.6;87.62207;947.353;;;;
2022/10/28 05:35:37;;;;;;;8.8;3.6;;;;;;;9.51;87.85547;947.2495;;;;
2022/10/28 05:38:06;;;;;;;7.9;4;;;;;;;9.52;88.00391;947.2665;;;;
2022/10/28 05:40:31;;;;;;;12;4.1;;;;;;;9.54;88.46484;947.3452;;;;
2022/10/28 05:43:01;;;;;;;7.8;4.1;;;;;;;9.55;88.10059;947.2776;;;;
2022/10/28 05:45:26;;;;;;;6.7;3.9;;;;;;;9.64;87.57422;947.27;;;;
2022/10/28 05:47:57;;;;;;;9.5;3.6;;;;;;;9.62;87.5459;947.3298;;;;
2022/10/28 05:50:30;;;;;;;6;3.7;;;;;;;9.63;87.24219;947.3549;;;;
2022/10/28 05:53:01;;;;;;;6.9;3.9;;;;;;;9.63;86.98926;947.3524;;;;
2022/10/28 05:55:31;;;;;;;6.9;3.7;;;;;;;9.55;87.10938;947.3524;;;;
2022/10/28 05:57:56;;;;;;;9.2;3.6;;;;;;;9.5;87.3623;947.3947;;;;
2022/10/28 06:00:24;;;;;;;5.7;3.2;;;;;;;9.5;87.60352;947.3964;;;;
2022/10/28 06:02:49;;;;;;;6.4;2.5;;;;;;;9.6;87.39355;947.4261;;;;
2022/10/28 06:05:15;;;;;;;5.6;2.5;;;;;;;9.45;88.15039;947.457;;;;
2022/10/28 06:07:42;;;;;;;3.8;2.7;;;;;;;9.61;88.17188;947.4685;;;;
2022/10/28 06:10:07;;;;;;;6.8;2.6;;;;;;;9.53;88.12109;947.4648;;;;
2022/10/28 06:12:35;;;;;;;6.2;2.5;;;;;;;9.66;87.54395;947.5211;;;;
2022/10/28 06:15:00;;;;;;;6.4;2.8;;;;;;;9.7;87.42578;947.4221;;;;
2022/10/28 06:17:28;;;;;;;8.8;2.7;;;;;;;9.66;87.52246;947.5553;;;;
2022/10/28 06:19:53;;;;;;;6.4;3;;;;;;;9.74;87.30957;947.4867;;;;
2022/10/28 06:22:19;;;;;;;5.8;2.9;;;;;;;9.79;87.27246;947.4387;;;;
2022/10/28 06:24:45;;;;;;;7.4;3.1;;;;;;;9.92;86.94629;947.5795;;;;
2022/10/28 06:27:10;;;;;;;7.1;2.6;;;;;;;10.04;86.37891;947.5894;;;;
2022/10/28 06:29:36;;;;;;;6.7;3;;;;;;;10.15;85.80762;947.6456;;;;
2022/10/28 06:32:03;;;;;;;8.7;3.9;;;;;;;10.24;85.44922;947.5783;;;;
2022/10/28 06:34:28;;;;;;;8.9;4.2;;;;;;;10.41;84.99023;947.6566;;;;
2022/10/28 06:36:53;;;;;;;11.9;5.9;;;;;;;10.68;83.91504;947.6184;;;;
2022/10/28 06:39:21;;;;;;;11.9;6.7;;;;;;;10.83;82.74316;947.5825;;;;
2022/10/28 06:41:46;;;;;;;9.3;5.2;;;;;;;10.94;81.89551;947.6678;;;;
2022/10/28 06:44:13;;;;;;;10.6;5.2;;;;;;;11.03;81.75195;947.6295;;;;
2022/10/28 06:46:38;;;;;;;9.2;4.1;;;;;;;11.16;81.33203;947.6676;;;;
2022/10/28 06:49:05;;;;;;;7.1;3.5;;;;;;;11.08;81.39453;947.6633;;;;
2022/10/28 06:51:30;;;;;;;5.5;3.1;;;;;;;11.23;81.41211;947.7388;;;;
2022/10/28 06:53:59;;;;;;;8.3;3.1;;;;;;;11.37;80.48828;947.76;;;;
2022/10/28 06:56:23;;;;;;;10.8;3.5;;;;;;;11.52;80.12891;947.7516;;;;
2022/10/28 06:58:52;;;;;;;8.8;3.6;;;;;;;11.7;79.31543;947.7653;;;;
2022/10/28 07:01:21;;;;;;;9;4.3;;;;;;;11.84;78.26172;947.7822;;;;
2022/10/28 07:03:46;;;;;;;8.4;4.1;;;;;;;12.09;76.7041;947.8016;;;;
2022/10/28 07:06:17;;;;;;;12.1;4.3;;;;;;;12.51;75.97461;947.848;;;;
2022/10/28 07:08:46;;;;;;;10.4;4;;;;;;;12.84;74.30078;947.8519;;;;
2022/10/28 07:11:17;;;;;;;4.9;2.8;;;;;;;13.04;73.23047;947.8569;;;;
2022/10/28 07:13:42;;;;;;;8.8;3.2;;;;;;;13.24;72.85254;947.8286;;;;
2022/10/28 07:16:10;;;;;;;7.3;3.3;;;;;;;13.16;72.76855;947.8475;;;;
2022/10/28 07:18:36;;;;;;;9.8;3.6;;;;;;;13.2;73.59277;947.8469;;;;
2022/10/28 07:21:01;;;;;;;5.7;3.1;;;;;;;13.31;73.3457;947.8167;;;;
2022/10/28 07:23:27;;;;;;;8.6;2.8;;;;;;;13.43;72.73438;947.7707;;;;
2022/10/28 07:25:52;;;;;;;5;2.6;;;;;;;13.28;72.96191;947.7618;;;;
2022/10/28 07:28:21;;;;;;;5.9;3;;;;;;;13.5;71.98633;947.7764;;;;
2022/10/28 07:31:07;;;;;;;4;1.9;;;;;;;13.45;70.91016;947.7453;;;;
2022/10/28 07:33:32;;;;;;;6.2;2.4;;;;;;;13.8;70.49414;947.7445;;;;
2022/10/28 07:35:57;;;;;;;4.2;2;;;;;;;14.34;68.10645;947.6674;;;;
2022/10/28 07:38:22;;;;;;;3;1.6;;;;;;;14.75;66.99414;947.6833;;;;
2022/10/28 07:40:51;;;;;;;4.4;1.9;;;;;;;14.92;66.4082;947.6889;;;;
2022/10/28 07:43:16;;;;;;;5.7;1.9;;;;;;;15.32;65.81152;947.6635;;;;
2022/10/28 07:45:46;;;;;;;4;1.9;;;;;;;15.51;65.06836;947.7773;;;;
2022/10/28 07:48:11;;;;;;;3.9;2.2;;;;;;;15.66;64.84668;947.7128;;;;
2022/10/28 07:50:40;;;;;;;4.8;2.6;;;;;;;15.73;65.12207;947.6642;;;;
2022/10/28 07:53:05;;;;;;;4;2.1;;;;;;;16.12;63.7002;947.6503;;;;
2022/10/28 07:55:34;;;;;;;4.2;2;;;;;;;16.48;62.39746;947.6694;;;;
2022/10/28 07:57:59;;;;;;;6.6;1.8;;;;;;;16.26;61.29102;947.7104;;;;
2022/10/28 08:00:30;;;;;;;3.3;1.8;;;;;;;16.53;60.91211;947.6583;;;;
2022/10/28 08:03:02;;;;;;;5.2;1.9;;;;;;;16.92;60.03906;947.6337;;;;
2022/10/28 08:05:32;;;;;;;4;1.4;;;;;;;17.52;57.55664;947.6791;;;;
2022/10/28 08:07:57;;;;;;;5.2;1.5;;;;;;;17.91;56.20313;947.6345;;;;
2022/10/28 08:10:27;;;;;;;2.6;1.4;;;;;;;18.4;54.81348;947.5795;;;;
2022/10/28 08:12:52;;;;;;;4.6;1.8;;;;;;;18.59;52.34668;947.5254;;;;
2022/10/28 08:15:20;;;;;;;2.2;1.2;;;;;;;18.45;51.98242;947.5642;;;;
2022/10/28 08:17:42;;;;;;;3.5;1.3;;;;;;;18.45;53.13281;947.5545;;;;
2022/10/28 08:20:11;;;;;;;2.5;1.5;;;;;;;18.49;52.4873;947.5309;;;;
2022/10/28 08:22:36;;;;;;;2.7;1.2;;;;;;;18.3;51.9873;947.4817;;;;
2022/10/28 08:25:02;;;;;;;2.2;1.3;;;;;;;18.06;52.33105;947.514;;;;
2022/10/28 08:27:27;;;;;;;3.3;1.2;;;;;;;18.36;51.9707;947.4095;;;;
2022/10/28 08:29:54;;;;;;;2.5;1.3;;;;;;;18.43;52.46777;947.457;;;;
2022/10/28 08:32:19;;;;;;;3.1;1.7;;;;;;;18.45;51.48242;947.5262;;;;
2022/10/28 08:34:49;;;;;;;5.2;1.4;;;;;;;18.37;53.03125;947.4531;;;;
2022/10/28 08:37:14;;;;;;;3.1;1.2;;;;;;;18.65;53.15723;947.4724;;;;
2022/10/28 08:39:39;;;;;;;3.3;1.1;;;;;;;18.91;51.05957;947.4553;;;;
2022/10/28 08:42:06;;;;;;;3.3;1.4;;;;;;;19.25;50.63184;947.4127;;;;
2022/10/28 08:44:29;;;;;;;2.9;1.5;;;;;;;19.2;49.97461;947.3789;;;;
2022/10/28 08:46:57;;;;;;;2.6;1.3;;;;;;;19.27;50.34375;947.4739;;;;
2022/10/28 08:49:22;;;;;;;2.3;1.2;;;;;;;19.35;49.15234;947.4724;;;;
2022/10/28 08:54:36;;;;;;;2.7;1.2;;;;;;;19.65;50.07227;947.3335;;;;
2022/10/28 08:56:57;;;;;;;2.4;1.2;;;;;;;19.75;47.22656;947.3858;;;;
2022/10/28 08:59:21;;;;;;;2.9;1.4;;;;;;;19.5;47.43262;947.4235;;;;
2022/10/28 09:01:46;;;;;;;4;1.2;;;;;;;19.66;48.32324;947.3691;;;;
2022/10/28 09:04:12;;;;;;;2.4;1.1;;;;;;;19.87;48.60449;947.3557;;;;
2022/10/28 09:06:37;;;;;;;2.4;1.1;;;;;;;20.29;47.96094;947.2863;;;;
2022/10/28 09:09:04;;;;;;;3.5;1.6;;;;;;;20.66;47.33496;947.37;;;;
2022/10/28 09:11:29;;;;;;;2.9;1.1;;;;;;;20.9;46.49609;947.3309;;;;
2022/10/28 09:13:55;;;;;;;5.5;2.7;;;;;;;20.87;45.27734;947.2634;;;;
2022/10/28 09:16:20;;;;;;;9;3;;;;;;;20.91;45.10547;947.2919;;;;
2022/10/28 09:18:45;;;;;;;7.2;2.7;;;;;;;20.98;44.65723;947.2965;;;;
2022/10/28 09:21:10;;;;;;;4.9;2.2;;;;;;;21.08;44.99414;947.3259;;;;
2022/10/28 09:23:35;;;;;;;4;1.8;;;;;;;21.11;43.62891;947.2695;;;;
2022/10/28 09:26:00;;;;;;;4.1;1.5;;;;;;;21.17;43.31934;947.283;;;;
2022/10/28 09:28:25;;;;;;;2.1;1.5;;;;;;;21.59;44.16797;947.2659;;;;
2022/10/28 09:30:50;;;;;;;1.4;1;;;;;;;21.77;43.21289;947.2611;;;;
2022/10/28 09:33:16;;;;;;;1.4;0.9;;;;;;;22.07;42.02344;947.2756;;;;
2022/10/28 09:35:41;;;;;;;3.6;1.3;;;;;;;22.25;41.3252;947.2372;;;;
2022/10/28 09:38:06;;;;;;;3.5;1;;;;;;;21.96;41.61523;947.1635;;;;
2022/10/28 09:40:34;;;;;;;2.8;0.9;;;;;;;22.22;40.86621;947.2131;;;;
2022/10/28 09:42:59;;;;;;;2.7;1;;;;;;;22.09;41.16992;947.2012;;;;
2022/10/28 09:45:25;;;;;;;1.3;0.9;;;;;;;21.99;40.9502;947.137;;;;
2022/10/28 09:47:53;;;;;;;2;1;;;;;;;21.89;40.74121;947.139;;;;
2022/10/28 09:50:18;;;;;;;2.4;0.9;;;;;;;21.84;40.66602;947.1157;;;;
2022/10/28 09:52:43;;;;;;;1.8;1;;;;;;;21.72;41.60352;947.1016;;;;
2022/10/28 09:55:18;;;;;;;3.7;1.2;;;;;;;21.72;42.18945;947.0618;;;;
2022/10/28 09:57:46;;;;;;;2.6;1.3;;;;;;;21.83;42.34082;946.9959;;;;
2022/10/28 10:03:02;;;;;;;1.7;1;;;;;;;21.99;43.10645;946.9927;;;;
2022/10/28 10:05:34;;;;;;;4.5;1.7;;;;;;;22.47;43.2002;946.9592;;;;
2022/10/28 10:08:03;;;;;;;3.9;1;;;;;;;22.89;41.20801;946.9152;;;;
2022/10/28 10:10:28;;;;;;;4.8;1.2;;;;;;;23.08;39.26367;946.9247;;;;
2022/10/28 10:12:54;;;;;;;1.7;1;;;;;;;23.52;39.38574;946.9666;;;;
2022/10/28 10:15:19;;;;;;;4.6;1.2;;;;;;;22.97;37.9502;946.9619;;;;
2022/10/28 10:17:44;;;;;;;1.3;0.8;;;;;;;22.82;38.53613;946.8914;;;;
2022/10/28 10:20:13;;;;;;;3.2;1;;;;;;;22.82;38.58301;946.9711;;;;
2022/10/28 10:23:00;;;;;;;5.4;1.4;;;;;;;22.97;39.05469;946.945;;;;
2022/10/28 10:25:29;;;;;;;3.3;0.8;;;;;;;23.64;39.80762;947.0128;;;;
2022/10/28 10:27:53;;;;;;;1.1;0.8;;;;;;;23.96;38.11816;946.9937;;;;
2022/10/28 10:30:21;;;;;;;2.4;0.8;;;;;;;24.16;39.12402;947.0483;;;;
2022/10/28 10:32:51;;;;;;;2.1;0.8;;;;;;;24.5;38.18652;947.0164;;;;
2022/10/28 10:35:17;;;;;;;2.4;0.8;;;;;;;24.68;37.16504;946.9777;;;;
2022/10/28 10:37:43;;;;;;;1.3;0.9;;;;;;;25.07;36.41895;947.0378;;;;
2022/10/28 10:40:15;;;;;;;2.5;1.1;;;;;;;25.34;35.66113;947.0356;;;;
2022/10/28 10:42:40;;;;;;;1.4;0.8;;;;;;;25.49;34.30273;947.0095;;;;
2022/10/28 10:45:12;;;;;;;1.3;1;;;;;;;25.48;34.11328;946.9576;;;;
2022/10/28 10:47:38;;;;;;;2.4;0.8;;;;;;;25.39;34.51953;946.9654;;;;
2022/10/28 10:50:03;;;;;;;3.6;1.4;;;;;;;25.66;35.78125;946.9053;;;;
2022/10/28 10:52:28;;;;;;;2.4;0.9;;;;;;;25.63;34.14941;946.8881;;;;
2022/10/28 10:54:55;;;;;;;1.2;0.9;;;;;;;25.29;35.1377;946.8773;;;;
2022/10/28 10:57:21;;;;;;;1.8;0.7;;;;;;;25.69;34.62598;946.7517;;;;
2022/10/28 10:59:46;;;;;;;2.1;1;;;;;;;25.55;34.03613;946.7659;;;;
2022/10/28 11:02:13;;;;;;;2.3;1;;;;;;;26.35;33.5293;946.7597;;;;
2022/10/28 11:04:40;;;;;;;2.2;1.1;;;;;;;26.42;32.25488;946.7032;;;;
2022/10/28 11:07:05;;;;;;;1.9;0.8;;;;;;;26.44;33.55859;946.7118;;;;
2022/10/28 11:09:30;;;;;;;4.9;1;;;;;;;26.6;33.35742;946.6522;;;;
2022/10/28 11:11:56;;;;;;;2.1;1.1;;;;;;;27.05;33.86523;946.6884;;;;
2022/10/28 11:14:21;;;;;;;3.6;0.8;;;;;;;27.25;32.80176;946.6206;;;;
2022/10/28 11:16:46;;;;;;;1.8;0.9;;;;;;;27.75;31.69824;946.6015;;;;
2022/10/28 11:19:12;;;;;;;2;1;;;;;;;28.43;32.53027;946.5269;;;;
2022/10/28 11:21:41;;;;;;;3.2;1;;;;;;;28.79;30.84375;946.5084;;;;
2022/10/28 11:24:02;;;;;;;2.3;0.9;;;;;;;28.97;31.20117;946.4895;;;;
2022/10/28 11:26:30;;;;;;;2.2;1.2;;;;;;;29.43;29.92188;946.4675;;;;
2022/10/28 11:28:56;;;;;;;2;0.8;;;;;;;29.3;29.3291;946.4486;;;;
2022/10/28 11:31:43;;;;;;;2.3;0.9;;;;;;;29.27;29.25586;946.4391;;;;
2022/10/28 11:34:08;;;;;;;1.9;0.7;;;;;;;29.09;27.875;946.3702;;;;
2022/10/28 11:36:33;;;;;;;2.5;1;;;;;;;28.97;29.33203;946.3691;;;;
2022/10/28 11:38:58;;;;;;;2.7;0.9;;;;;;;30.01;27.28809;946.3264;;;;
2022/10/28 11:41:25;;;;;;;2.6;0.9;;;;;;;31.33;26.18262;946.3027;;;;
2022/10/28 11:43:55;;;;;;;1.6;0.7;;;;;;;32.55;25.05273;946.2296;;;;
2022/10/28 11:46:20;;;;;;;3;0.9;;;;;;;31.76;25.15332;946.2203;;;;
2022/10/28 11:48:46;;;;;;;2.8;0.9;;;;;;;30.45;26.4668;946.1713;;;;
2022/10/28 11:51:11;;;;;;;2;1;;;;;;;29.14;28.54492;946.1606;;;;
2022/10/28 11:53:38;;;;;;;2;0.8;;;;;;;29.37;28.83398;946.0869;;;;
2022/10/28 11:56:04;;;;;;;1.5;0.8;;;;;;;32.53;26.56445;946.062;;;;
2022/10/28 11:58:30;;;;;;;2.5;0.8;;;;;;;31.78;25.27441;945.9835;;;;
2022/10/28 12:00:54;;;;;;;1.8;1;;;;;;;31.22;26.32031;945.9408;;;;
2022/10/28 12:03:22;;;;;;;4.2;1;;;;;;;32.68;26.18848;945.9009;;;;
2022/10/28 12:05:47;;;;;;;2.8;1.2;;;;;;;31.89;26.21582;945.905;;;;
2022/10/28 12:08:12;;;;;;;2;1;;;;;;;30.52;26.76855;945.8436;;;;
2022/10/28 12:10:40;;;;;;;2.3;0.9;;;;;;;30.59;27.47754;945.791;;;;
2022/10/28 12:13:09;;;;;;;3.1;1.1;;;;;;;31.53;26.46973;945.8178;;;;
2022/10/28 12:15:36;;;;;;;3.1;1.3;;;;;;;31.15;27.02246;945.7759;;;;
2022/10/28 12:18:01;;;;;;;3.3;0.8;;;;;;;29.86;26.59863;945.6423;;;;
2022/10/28 12:20:29;;;;;;;2.1;0.9;;;;;;;29.06;27.43262;945.6597;;;;
2022/10/28 12:22:54;;;;;;;2.1;0.8;;;;;;;28.6;29.20117;945.6459;;;;
2022/10/28 12:25:22;;;;;;;3.8;1.1;;;;;;;28.29;30.28613;945.628;;;;
2022/10/28 12:27:44;;;;;;;5.9;2.3;;;;;;;28.16;31.50098;945.5641;;;;
2022/10/28 12:30:09;;;;;;;7.7;3.1;;;;;;;28.35;32.33398;945.5721;;;;
2022/10/28 12:32:34;;;;;;;5;1.9;;;;;;;28.17;32.53613;945.504;;;;
2022/10/28 12:35:01;;;;;;;6.9;2.2;;;;;;;27.94;33.01758;945.4997;;;;
2022/10/28 12:37:28;;;;;;;7.5;2.3;;;;;;;28.06;32.8252;945.4959;;;;
2022/10/28 12:39:53;;;;;;;4.7;1.8;;;;;;;28.22;32.11133;945.4671;;;;
2022/10/28 12:42:21;;;;;;;2.8;1.7;;;;;;;31;29.5;945.4933;;;;
2022/10/28 12:44:46;;;;;;;6.4;2.5;;;;;;;33.16;25.6875;945.4252;;;;
2022/10/28 12:47:11;;;;;;;4.9;2;;;;;;;34.7;24.24316;945.4221;;;;
2022/10/28 12:49:37;;;;;;;6.2;3.2;;;;;;;36.82;22.38184;945.4068;;;;
2022/10/28 12:52:04;;;;;;;3.8;1.2;;;;;;;37.73;20.09668;945.3828;;;;
2022/10/28 12:54:30;;;;;;;4.6;1.3;;;;;;;37.62;20.51563;945.3453;;;;
2022/10/28 12:56:56;;;;;;;2;1;;;;;;;36.34;21.16113;945.3747;;;;
2022/10/28 13:02:57;;;;;;;3.2;1.1;;;;;;;34.77;22.39063;945.325;;;;
2022/10/28 13:05:26;;;;;;;2.5;1;;;;;;;34.71;22.90625;945.3233;;;;
2022/10/28 13:07:51;;;;;;;2.5;1.4;;;;;;;34.88;22.39648;945.3236;;;;
2022/10/28 13:10:17;;;;;;;3.3;1.3;;;;;;;35.98;21.33789;945.3363;;;;
2022/10/28 13:12:43;;;;;;;2.3;1.2;;;;;;;36.53;20.70996;945.3325;;;;
2022/10/28 13:15:08;;;;;;;2.6;1.1;;;;;;;35.26;22.02832;945.2817;;;;
2022/10/28 13:17:33;;;;;;;2.7;1.1;;;;;;;35.71;22.37598;945.2625;;;;
2022/10/28 13:19:58;;;;;;;3.6;1.5;;;;;;;36.19;21.21484;945.2548;;;;
2022/10/28 13:22:26;;;;;;;2;1.2;;;;;;;36.87;21.5;945.2173;;;;
2022/10/28 13:24:55;;;;;;;3.5;1.5;;;;;;;36.72;20.85156;945.2167;;;;
2022/10/28 13:27:23;;;;;;;4.5;1.4;;;;;;;36.79;20.63672;945.1858;;;;
2022/10/28 13:29:48;;;;;;;3.9;1.1;;;;;;;36.99;20.73047;945.262;;;;
2022/10/28 13:32:14;;;;;;;2.8;1.4;;;;;;;36.1;21.07715;945.2317;;;;
2022/10/28 13:34:40;;;;;;;3.4;1.1;;;;;;;35.27;21.81152;945.2573;;;;
2022/10/28 13:37:05;;;;;;;3.8;1.3;;;;;;;36.54;21.62988;945.2769;;;;
2022/10/28 13:39:31;;;;;;;2.5;1.3;;;;;;;36.43;20.9834;945.2758;;;;
2022/10/28 13:41:56;;;;;;;3.7;1.2;;;;;;;34.3;23.15039;945.2236;;;;
2022/10/28 13:44:21;;;;;;;3.8;1.7;;;;;;;33.77;24.01367;945.2288;;;;
2022/10/28 13:46:48;;;;;;;3.6;1.3;;;;;;;33.68;24.14063;945.2075;;;;
2022/10/28 13:49:28;;;;;;;1.8;1.1;;;;;;;33.97;23.33789;945.1972;;;;
2022/10/28 13:51:53;;;;;;;4.8;1.3;;;;;;;32.96;24.60742;945.2586;;;;
2022/10/28 13:54:18;;;;;;;3.6;1.5;;;;;;;31.89;26.28711;945.2336;;;;
2022/10/28 13:56:45;;;;;;;5.2;1.2;;;;;;;30.99;28.13574;945.2207;;;;
2022/10/28 13:59:10;;;;;;;6.4;1.5;;;;;;;31.54;27.34473;945.2322;;;;
2022/10/28 14:01:40;;;;;;;1.9;1.5;;;;;;;30.81;28.66211;945.2256;;;;
2022/10/28 14:04:09;;;;;;;4;1.3;;;;;;;29.57;30.26465;945.1752;;;;
2022/10/28 14:06:34;;;;;;;4.3;1.6;;;;;;;28.58;31.68555;945.2161;;;;
2022/10/28 14:08:59;;;;;;;3.7;1.5;;;;;;;28.3;31.97461;945.2647;;;;
2022/10/28 14:11:31;;;;;;;4.5;1.3;;;;;;;29.45;30.87695;945.2692;;;;
2022/10/28 14:13:54;;;;;;;5.7;1.8;;;;;;;30.7;29.05078;945.2736;;;;
2022/10/28 14:16:22;;;;;;;5.2;1.1;;;;;;;31.71;27.88086;945.3301;;;;
2022/10/28 14:18:47;;;;;;;7.7;1.6;;;;;;;32.42;27.15723;945.3063;;;;
2022/10/28 14:21:13;;;;;;;3.8;1.6;;;;;;;33.55;25.54102;945.3136;;;;
2022/10/28 14:23:38;;;;;;;5.6;1.7;;;;;;;34.14;24.53906;945.3176;;;;
2022/10/28 14:26:03;;;;;;;3.3;1.3;;;;;;;33.47;25.21191;945.3474;;;;
2022/10/28 14:28:28;;;;;;;6.5;1.7;;;;;;;32.91;26.09375;945.3109;;;;
2022/10/28 14:30:53;;;;;;;9;1.3;;;;;;;33.84;25.37695;945.3917;;;;
2022/10/28 14:33:19;;;;;;;5.2;1.4;;;;;;;34.42;24.96387;945.3857;;;;
2022/10/28 14:35:57;;;;;;;6.5;1.8;;;;;;;34.49;24.60547;945.3642;;;;
2022/10/28 14:38:23;;;;;;;5;1.7;;;;;;;33.21;25.90625;945.3884;;;;
2022/10/28 14:40:48;;;;;;;5.8;1.7;;;;;;;32.68;26.09277;945.3773;;;;
2022/10/28 14:43:13;;;;;;;2.5;1.3;;;;;;;31.01;28.04199;945.3909;;;;
2022/10/28 14:45:40;;;;;;;3.5;1.6;;;;;;;29.7;29.9873;945.4034;;;;
2022/10/28 14:48:05;;;;;;;5.6;1.7;;;;;;;29.45;31.43652;945.3834;;;;
2022/10/28 14:50:31;;;;;;;6;2.1;;;;;;;29.21;32.99219;945.3926;;;;
2022/10/28 14:52:56;;;;;;;7.1;2;;;;;;;28.93;33.37695;945.3998;;;;
2022/10/28 14:55:34;;;;;;;7.8;1.9;;;;;;;28.23;33.93066;945.3747;;;;
2022/10/28 14:58:01;;;;;;;5.5;1.5;;;;;;;28.37;34.44043;945.3464;;;;
2022/10/28 15:00:28;;;;;;;4.1;1.7;;;;;;;28.12;34.44531;945.3499;;;;
2022/10/28 15:02:54;;;;;;;6.9;1.8;;;;;;;27.41;35.55469;945.4511;;;;
2022/10/28 15:05:25;;;;;;;10.9;2.3;;;;;;;26.63;36.94824;945.4067;;;;
2022/10/28 15:07:50;;;;;;;4.9;1.9;;;;;;;26.03;37.97461;945.4199;;;;
2022/10/28 15:10:22;;;;;;;7.4;2;;;;;;;25.43;38.96387;945.4702;;;;
2022/10/28 15:12:47;;;;;;;4.5;1.9;;;;;;;24.96;40.13867;945.5142;;;;
2022/10/28 15:15:18;;;;;;;7.2;2;;;;;;;24.87;40.97949;945.5418;;;;
2022/10/28 15:17:44;;;;;;;4.2;1.8;;;;;;;24.72;41.4375;945.559;;;;
2022/10/28 15:20:18;;;;;;;5.8;1.5;;;;;;;24.72;43.54785;945.5818;;;;
2022/10/28 15:22:45;;;;;;;4;1.8;;;;;;;24.49;44.54004;945.5817;;;;
2022/10/28 15:25:08;;;;;;;9.7;2.1;;;;;;;24.12;43.19531;945.5844;;;;
2022/10/28 15:27:38;;;;;;;6.9;2;;;;;;;23.5;43.95801;945.5834;;;;
2022/10/28 15:30:03;;;;;;;7.2;2.5;;;;;;;23.37;44.45117;945.6598;;;;
2022/10/28 15:32:28;;;;;;;7.1;2.2;;;;;;;23.49;45.05078;945.6544;;;;
2022/10/28 15:34:55;;;;;;;8.1;2.5;;;;;;;23.45;46.43457;945.6465;;;;
2022/10/28 15:37:20;;;;;;;8.5;2.2;;;;;;;23.36;47.64844;945.7244;;;;
2022/10/28 15:39:48;;;;;;;5.8;1.8;;;;;;;23.17;47.41504;945.736;;;;
2022/10/28 15:42:13;;;;;;;10;3;;;;;;;22.93;48.58789;945.7438;;;;
2022/10/28 15:44:38;;;;;;;5.2;2.2;;;;;;;22.81;49.29199;945.7356;;;;
2022/10/28 15:47:03;;;;;;;5.6;2.5;;;;;;;22.74;49.54102;945.7773;;;;
2022/10/28 15:49:30;;;;;;;6.3;2.7;;;;;;;22.55;51.08203;945.8198;;;;